Карточка аэропорта UHBB

Внимание!
Информация на этой странице в стадии наполнения.
Если вы не увидели какой-то информации, или заметили неточность - пожалуйста сообщите нам!
Спасибо!
Команда RU-STAFF
Название аэропортаИгнатьево
Название аэропорта (англ.)Ignatyevo
Превышение640 ft. (195.1 m.)
Координаты50°25.536', 127°24.72'
Высота перехода900m
Эшелон переходаFL050
Коды ответчика1601-1617
Зона ОрВДХабаровск РПИ (UHHH)
Данные METARUHBB 172200Z 24003MPS 9999 SCT033CB 17/17 Q0998 R36/290350 NOSIG RMK QFE731/0975
Проноз погоды (TAF)UHBB 171950Z 1721/1821 24003G08MPS 4000 -SHRA BKN025CB TEMPO 1721/1807 3100 -TSRA SCT011 BKN015CB BECMG 1803/1806 32003MPS BECMG 1807/1809 9999 NSW SCT030CB TEMPO 1817/1821 3100 BR SCT011 BKN020CB
NOTAMshow/hide NOTAM
AWOS   TABLE

Информация о ВПП

ВПП Длина ВПП (м.) Покрытие Курс ВПП Частота ILS
182800Асфальтобетон180 
362800Асфальтобетон360108.7

Диспетчерские позиции

Позывной Наименование органа УВД Частота
UHBB_TWRБлаговещенск-Вышка127.2



Спутниковое изображение